Main page
METAR-TAF:

METAR-TAF

Airports :

Cherbourg – Maupertus Airport

Cherbourg, France

latitude: 49-39N, longitude: 001-28W, elevation: 138 m

Current weather observation

The report was made 33 minutes ago, at 19:00 UTC
Wind 2 kt from the East/Southeast
Temperature 15°C
Humidity 94%
Pressure 1016 hPa
Visibility: 2300 m
mist

METAR: LFRC 211900Z AUTO 11002KT 2300 BR NSC 15/14 Q1016

Time: 21:33 (19:33 UTC)

Forecast

The report was made 5 hours and 33 minutes ago, at 14:00 UTC
Forecast valid from 21 at 15 UTC to 21 at 24 UTC
Wind 5 kt from the Northeast
Visibility 10 km or more
no clouds below 1500 m and no cumulonimbus
Probability 40% :
Temporary
from 21 at 20 UTC to 21 at 24 UTC
Visibility: 3000 m
mist
Probability 30% :
Temporary
from 21 at 21 UTC to 21 at 24 UTC
Visibility: 0500 m
fog

TAF: LFRC 211400Z 2115/2124 05005KT CAVOK PROB40 TEMPO 2120/2124 3000 BR PROB30 TEMPO 2121/2124 0500 FG VV///

Weather observations and forecasts of more than 4000 airports (METAR and TAF reports).

The available stations are represented by yellow and red dots on the map.

Hover mouse over dot to see the name of the station.

Then click to see weather observations and forecasts.

To change the map : click on the green buttons with a black cross to zoom in, on the green button with a dash to zoom out, or on the green arrows for adjacent maps.


METAR-TAF: